sensor_id;sensor_type;location;lat;lon;timestamp;temperature;humidity
50586;DHT22;36542;51.700;8.846;2023-07-29T00:01:19;16.20;99.90
50586;DHT22;36542;51.700;8.846;2023-07-29T00:03:45;16.20;99.90
50586;DHT22;36542;51.700;8.846;2023-07-29T00:06:11;16.20;99.90
50586;DHT22;36542;51.700;8.846;2023-07-29T00:08:36;16.20;99.90
50586;DHT22;36542;51.700;8.846;2023-07-29T00:11:02;16.20;99.90
50586;DHT22;36542;51.700;8.846;2023-07-29T00:13:27;16.30;99.90
50586;DHT22;36542;51.700;8.846;2023-07-29T00:15:55;16.40;99.90
50586;DHT22;36542;51.700;8.846;2023-07-29T00:18:23;16.30;99.90
50586;DHT22;36542;51.700;8.846;2023-07-29T00:20:49;16.30;99.90
50586;DHT22;36542;51.700;8.846;2023-07-29T00:23:17;16.30;99.90
50586;DHT22;36542;51.700;8.846;2023-07-29T00:25:44;16.30;99.90
50586;DHT22;36542;51.700;8.846;2023-07-29T00:28:10;16.40;99.90
50586;DHT22;36542;51.700;8.846;2023-07-29T00:30:36;16.40;99.90
50586;DHT22;36542;51.700;8.846;2023-07-29T00:33:02;16.50;99.90
50586;DHT22;36542;51.700;8.846;2023-07-29T00:35:27;16.50;99.90
50586;DHT22;36542;51.700;8.846;2023-07-29T00:37:53;16.60;99.90
50586;DHT22;36542;51.700;8.846;2023-07-29T00:40:22;16.60;99.90
50586;DHT22;36542;51.700;8.846;2023-07-29T00:42:48;16.70;99.90
50586;DHT22;36542;51.700;8.846;2023-07-29T00:45:14;16.80;99.90
50586;DHT22;36542;51.700;8.846;2023-07-29T00:47:41;16.80;99.90
50586;DHT22;36542;51.700;8.846;2023-07-29T00:50:09;16.90;99.90
50586;DHT22;36542;51.700;8.846;2023-07-29T00:52:36;16.90;99.90
50586;DHT22;36542;51.700;8.846;2023-07-29T00:55:02;16.90;99.90
50586;DHT22;36542;51.700;8.846;2023-07-29T00:57:29;16.90;99.90
50586;DHT22;36542;51.700;8.846;2023-07-29T00:59:55;17.00;99.90
50586;DHT22;36542;51.700;8.846;2023-07-29T01:02:21;17.00;99.90
50586;DHT22;36542;51.700;8.846;2023-07-29T01:04:55;17.00;99.90
50586;DHT22;36542;51.700;8.846;2023-07-29T01:10:03;17.10;99.90
50586;DHT22;36542;51.700;8.846;2023-07-29T01:12:53;17.10;99.90
50586;DHT22;36542;51.700;8.846;2023-07-29T01:15:28;17.00;99.90
50586;DHT22;36542;51.700;8.846;2023-07-29T01:18:07;17.00;99.90
50586;DHT22;36542;51.700;8.846;2023-07-29T01:20:37;17.00;99.90
50586;DHT22;36542;51.700;8.846;2023-07-29T01:23:02;17.10;99.90
50586;DHT22;36542;51.700;8.846;2023-07-29T01:25:28;17.10;99.90
50586;DHT22;36542;51.700;8.846;2023-07-29T01:27:53;17.00;99.90
50586;DHT22;36542;51.700;8.846;2023-07-29T01:30:24;16.90;99.90
50586;DHT22;36542;51.700;8.846;2023-07-29T01:32:54;16.80;99.90
50586;DHT22;36542;51.700;8.846;2023-07-29T01:38:09;16.80;99.90
50586;DHT22;36542;51.700;8.846;2023-07-29T01:40:38;17.00;99.90
50586;DHT22;36542;51.700;8.846;2023-07-29T01:43:05;17.10;99.90
50586;DHT22;36542;51.700;8.846;2023-07-29T01:45:32;17.10;99.90
50586;DHT22;36542;51.700;8.846;2023-07-29T01:48:01;17.00;99.90
50586;DHT22;36542;51.700;8.846;2023-07-29T01:50:27;17.10;99.90
50586;DHT22;36542;51.700;8.846;2023-07-29T01:52:52;17.10;99.90
50586;DHT22;36542;51.700;8.846;2023-07-29T01:55:18;17.00;99.90
50586;DHT22;36542;51.700;8.846;2023-07-29T01:57:43;17.00;99.90
50586;DHT22;36542;51.700;8.846;2023-07-29T02:00:10;17.00;99.90
50586;DHT22;36542;51.700;8.846;2023-07-29T02:02:36;17.00;99.90
50586;DHT22;36542;51.700;8.846;2023-07-29T02:05:01;17.00;99.90
50586;DHT22;36542;51.700;8.846;2023-07-29T02:07:27;17.00;99.90
50586;DHT22;36542;51.700;8.846;2023-07-29T02:09:52;17.00;99.90
50586;DHT22;36542;51.700;8.846;2023-07-29T02:12:18;17.00;99.90
50586;DHT22;36542;51.700;8.846;2023-07-29T02:14:44;16.90;99.90
50586;DHT22;36542;51.700;8.846;2023-07-29T02:17:09;16.90;99.90
50586;DHT22;36542;51.700;8.846;2023-07-29T02:19:35;16.80;99.90
50586;DHT22;36542;51.700;8.846;2023-07-29T02:22:01;16.80;99.90
50586;DHT22;36542;51.700;8.846;2023-07-29T02:24:26;16.70;99.90
50586;DHT22;36542;51.700;8.846;2023-07-29T02:26:52;16.70;99.90
50586;DHT22;36542;51.700;8.846;2023-07-29T02:29:17;16.70;99.90
50586;DHT22;36542;51.700;8.846;2023-07-29T02:31:43;16.70;99.90
50586;DHT22;36542;51.700;8.846;2023-07-29T02:34:09;16.70;99.90
50586;DHT22;36542;51.700;8.846;2023-07-29T02:36:35;16.60;99.90
50586;DHT22;36542;51.700;8.846;2023-07-29T02:39:00;16.60;99.90
50586;DHT22;36542;51.700;8.846;2023-07-29T02:41:26;16.60;99.90
50586;DHT22;36542;51.700;8.846;2023-07-29T02:43:51;16.60;99.90
50586;DHT22;36542;51.700;8.846;2023-07-29T02:46:17;16.70;99.90
50586;DHT22;36542;51.700;8.846;2023-07-29T02:48:44;16.70;99.90
50586;DHT22;36542;51.700;8.846;2023-07-29T02:51:09;16.70;99.90
50586;DHT22;36542;51.700;8.846;2023-07-29T02:53:35;16.80;99.90
50586;DHT22;36542;51.700;8.846;2023-07-29T02:56:02;16.90;99.90
50586;DHT22;36542;51.700;8.846;2023-07-29T02:58:28;16.90;99.90
50586;DHT22;36542;51.700;8.846;2023-07-29T03:01:00;17.00;99.90
50586;DHT22;36542;51.700;8.846;2023-07-29T03:03:27;17.10;99.90
50586;DHT22;36542;51.700;8.846;2023-07-29T03:06:06;17.10;99.90
50586;DHT22;36542;51.700;8.846;2023-07-29T03:08:32;17.10;99.90
50586;DHT22;36542;51.700;8.846;2023-07-29T03:10:58;17.00;99.90
50586;DHT22;36542;51.700;8.846;2023-07-29T03:13:24;17.00;99.90
50586;DHT22;36542;51.700;8.846;2023-07-29T03:15:49;16.90;99.90
50586;DHT22;36542;51.700;8.846;2023-07-29T03:18:15;17.00;99.90
50586;DHT22;36542;51.700;8.846;2023-07-29T03:20:41;17.00;99.90
50586;DHT22;36542;51.700;8.846;2023-07-29T03:23:06;17.00;99.90
50586;DHT22;36542;51.700;8.846;2023-07-29T03:25:32;17.00;99.90
50586;DHT22;36542;51.700;8.846;2023-07-29T03:27:58;17.00;99.90
50586;DHT22;36542;51.700;8.846;2023-07-29T03:30:24;17.10;99.90
50586;DHT22;36542;51.700;8.846;2023-07-29T03:32:50;17.10;99.90
50586;DHT22;36542;51.700;8.846;2023-07-29T03:35:15;17.10;99.90
50586;DHT22;36542;51.700;8.846;2023-07-29T03:37:41;17.10;99.90
50586;DHT22;36542;51.700;8.846;2023-07-29T03:40:07;17.10;99.90
50586;DHT22;36542;51.700;8.846;2023-07-29T03:42:34;17.00;99.90
50586;DHT22;36542;51.700;8.846;2023-07-29T03:45:00;17.00;99.90
50586;DHT22;36542;51.700;8.846;2023-07-29T03:47:25;17.00;99.90
50586;DHT22;36542;51.700;8.846;2023-07-29T03:49:51;17.00;99.90
50586;DHT22;36542;51.700;8.846;2023-07-29T03:52:16;17.00;99.90
50586;DHT22;36542;51.700;8.846;2023-07-29T03:54:42;17.10;99.90
50586;DHT22;36542;51.700;8.846;2023-07-29T03:57:07;17.10;99.90
50586;DHT22;36542;51.700;8.846;2023-07-29T03:59:33;17.20;99.90
50586;DHT22;36542;51.700;8.846;2023-07-29T04:01:59;17.20;99.90
50586;DHT22;36542;51.700;8.846;2023-07-29T04:04:24;17.20;99.90
50586;DHT22;36542;51.700;8.846;2023-07-29T04:06:50;17.20;99.90
50586;DHT22;36542;51.700;8.846;2023-07-29T04:09:15;17.20;99.90
50586;DHT22;36542;51.700;8.846;2023-07-29T04:11:41;17.20;99.90
50586;DHT22;36542;51.700;8.846;2023-07-29T04:14:06;17.30;99.90
50586;DHT22;36542;51.700;8.846;2023-07-29T04:16:32;17.20;99.90
50586;DHT22;36542;51.700;8.846;2023-07-29T04:18:57;17.20;99.90
50586;DHT22;36542;51.700;8.846;2023-07-29T04:21:23;17.20;99.90
50586;DHT22;36542;51.700;8.846;2023-07-29T04:23:48;17.20;99.90
50586;DHT22;36542;51.700;8.846;2023-07-29T04:26:14;17.20;99.90
50586;DHT22;36542;51.700;8.846;2023-07-29T04:28:39;17.20;99.90
50586;DHT22;36542;51.700;8.846;2023-07-29T04:31:05;17.20;99.90
50586;DHT22;36542;51.700;8.846;2023-07-29T04:33:30;17.10;99.90
50586;DHT22;36542;51.700;8.846;2023-07-29T04:35:56;17.20;99.90
50586;DHT22;36542;51.700;8.846;2023-07-29T04:38:30;17.20;99.90
50586;DHT22;36542;51.700;8.846;2023-07-29T04:40:55;17.20;99.90
50586;DHT22;36542;51.700;8.846;2023-07-29T04:43:21;17.20;99.90
50586;DHT22;36542;51.700;8.846;2023-07-29T04:45:46;17.30;99.90
50586;DHT22;36542;51.700;8.846;2023-07-29T04:48:12;17.30;99.90
50586;DHT22;36542;51.700;8.846;2023-07-29T04:50:37;17.40;99.90
50586;DHT22;36542;51.700;8.846;2023-07-29T04:53:03;17.30;99.90
50586;DHT22;36542;51.700;8.846;2023-07-29T04:55:28;17.40;99.90
50586;DHT22;36542;51.700;8.846;2023-07-29T04:57:54;17.30;99.90
50586;DHT22;36542;51.700;8.846;2023-07-29T05:00:20;17.30;99.90
50586;DHT22;36542;51.700;8.846;2023-07-29T05:02:45;17.30;99.90
50586;DHT22;36542;51.700;8.846;2023-07-29T05:05:11;17.30;99.90
50586;DHT22;36542;51.700;8.846;2023-07-29T05:07:36;17.30;99.90
50586;DHT22;36542;51.700;8.846;2023-07-29T05:10:02;17.30;99.90
50586;DHT22;36542;51.700;8.846;2023-07-29T05:12:28;17.30;99.90
50586;DHT22;36542;51.700;8.846;2023-07-29T05:14:54;17.30;99.90
50586;DHT22;36542;51.700;8.846;2023-07-29T05:17:20;17.30;99.90
50586;DHT22;36542;51.700;8.846;2023-07-29T05:19:45;17.40;99.90
50586;DHT22;36542;51.700;8.846;2023-07-29T05:22:11;17.30;99.90
50586;DHT22;36542;51.700;8.846;2023-07-29T05:24:37;17.30;99.90
50586;DHT22;36542;51.700;8.846;2023-07-29T05:27:02;17.20;99.90
50586;DHT22;36542;51.700;8.846;2023-07-29T05:29:28;17.20;99.90
50586;DHT22;36542;51.700;8.846;2023-07-29T05:31:54;17.30;99.90
50586;DHT22;36542;51.700;8.846;2023-07-29T05:34:20;17.30;99.90
50586;DHT22;36542;51.700;8.846;2023-07-29T05:36:45;17.40;99.90
50586;DHT22;36542;51.700;8.846;2023-07-29T05:39:11;17.40;99.90
50586;DHT22;36542;51.700;8.846;2023-07-29T05:41:37;17.50;99.90
50586;DHT22;36542;51.700;8.846;2023-07-29T05:44:03;17.70;99.90
50586;DHT22;36542;51.700;8.846;2023-07-29T05:46:28;17.80;99.90
50586;DHT22;36542;51.700;8.846;2023-07-29T05:48:54;17.80;99.90
50586;DHT22;36542;51.700;8.846;2023-07-29T05:51:19;17.90;99.90
50586;DHT22;36542;51.700;8.846;2023-07-29T05:53:45;17.80;99.90
50586;DHT22;36542;51.700;8.846;2023-07-29T05:56:10;17.90;99.90
50586;DHT22;36542;51.700;8.846;2023-07-29T05:58:36;17.90;99.90
50586;DHT22;36542;51.700;8.846;2023-07-29T06:01:01;17.90;99.90
50586;DHT22;36542;51.700;8.846;2023-07-29T06:03:27;17.80;99.90
50586;DHT22;36542;51.700;8.846;2023-07-29T06:05:53;17.70;99.90
50586;DHT22;36542;51.700;8.846;2023-07-29T06:08:19;17.70;99.90
50586;DHT22;36542;51.700;8.846;2023-07-29T06:10:44;17.60;99.90
50586;DHT22;36542;51.700;8.846;2023-07-29T06:13:10;17.60;99.90
50586;DHT22;36542;51.700;8.846;2023-07-29T06:15:36;17.50;99.90
50586;DHT22;36542;51.700;8.846;2023-07-29T06:18:01;17.60;99.90
50586;DHT22;36542;51.700;8.846;2023-07-29T06:20:27;17.60;99.90
50586;DHT22;36542;51.700;8.846;2023-07-29T06:22:52;17.60;99.90
50586;DHT22;36542;51.700;8.846;2023-07-29T06:25:18;17.70;99.90
50586;DHT22;36542;51.700;8.846;2023-07-29T06:27:43;17.80;99.90
50586;DHT22;36542;51.700;8.846;2023-07-29T06:30:09;17.70;99.90
50586;DHT22;36542;51.700;8.846;2023-07-29T06:32:34;17.70;99.90
50586;DHT22;36542;51.700;8.846;2023-07-29T06:35:00;17.80;99.90
50586;DHT22;36542;51.700;8.846;2023-07-29T06:37:26;17.80;99.90
50586;DHT22;36542;51.700;8.846;2023-07-29T06:39:51;17.90;99.90
50586;DHT22;36542;51.700;8.846;2023-07-29T06:42:17;17.90;99.90
50586;DHT22;36542;51.700;8.846;2023-07-29T06:44:42;17.90;99.90
50586;DHT22;36542;51.700;8.846;2023-07-29T06:47:08;17.80;99.90
50586;DHT22;36542;51.700;8.846;2023-07-29T06:49:33;17.80;99.90
50586;DHT22;36542;51.700;8.846;2023-07-29T06:51:59;17.90;99.90
50586;DHT22;36542;51.700;8.846;2023-07-29T06:54:25;18.10;99.90
50586;DHT22;36542;51.700;8.846;2023-07-29T06:56:53;18.20;99.90
50586;DHT22;36542;51.700;8.846;2023-07-29T06:59:19;18.30;99.90
50586;DHT22;36542;51.700;8.846;2023-07-29T07:01:44;18.30;99.90
50586;DHT22;36542;51.700;8.846;2023-07-29T07:04:10;18.30;99.90
50586;DHT22;36542;51.700;8.846;2023-07-29T07:06:35;18.40;99.90
50586;DHT22;36542;51.700;8.846;2023-07-29T07:09:01;18.40;99.90
50586;DHT22;36542;51.700;8.846;2023-07-29T07:11:26;18.40;99.90
50586;DHT22;36542;51.700;8.846;2023-07-29T07:13:52;18.30;99.90
50586;DHT22;36542;51.700;8.846;2023-07-29T07:16:17;18.20;99.90
50586;DHT22;36542;51.700;8.846;2023-07-29T07:18:43;18.10;99.90
50586;DHT22;36542;51.700;8.846;2023-07-29T07:21:09;18.10;99.90
50586;DHT22;36542;51.700;8.846;2023-07-29T07:23:35;18.00;99.90
50586;DHT22;36542;51.700;8.846;2023-07-29T07:26:01;18.00;99.90
50586;DHT22;36542;51.700;8.846;2023-07-29T07:28:26;18.00;99.90
50586;DHT22;36542;51.700;8.846;2023-07-29T07:30:52;18.00;99.90
50586;DHT22;36542;51.700;8.846;2023-07-29T07:33:17;18.10;99.90
50586;DHT22;36542;51.700;8.846;2023-07-29T07:35:43;18.10;99.90
50586;DHT22;36542;51.700;8.846;2023-07-29T07:38:09;18.10;99.90
50586;DHT22;36542;51.700;8.846;2023-07-29T07:40:36;18.10;99.90
50586;DHT22;36542;51.700;8.846;2023-07-29T07:43:01;18.20;99.90
50586;DHT22;36542;51.700;8.846;2023-07-29T07:45:27;18.30;99.90
50586;DHT22;36542;51.700;8.846;2023-07-29T07:47:53;18.40;99.90
50586;DHT22;36542;51.700;8.846;2023-07-29T07:50:21;18.50;99.90
50586;DHT22;36542;51.700;8.846;2023-07-29T07:52:46;18.50;99.90
50586;DHT22;36542;51.700;8.846;2023-07-29T07:55:12;18.50;99.90
50586;DHT22;36542;51.700;8.846;2023-07-29T07:57:38;18.60;99.90
50586;DHT22;36542;51.700;8.846;2023-07-29T08:00:03;18.60;99.90
50586;DHT22;36542;51.700;8.846;2023-07-29T08:02:30;18.70;99.90
50586;DHT22;36542;51.700;8.846;2023-07-29T08:04:55;18.70;99.90
50586;DHT22;36542;51.700;8.846;2023-07-29T08:07:21;18.70;99.90
50586;DHT22;36542;51.700;8.846;2023-07-29T08:09:46;18.80;99.90
50586;DHT22;36542;51.700;8.846;2023-07-29T08:12:12;18.80;99.90
50586;DHT22;36542;51.700;8.846;2023-07-29T08:14:37;18.80;99.90
50586;DHT22;36542;51.700;8.846;2023-07-29T08:17:03;18.80;99.90
50586;DHT22;36542;51.700;8.846;2023-07-29T08:19:28;18.60;99.90
50586;DHT22;36542;51.700;8.846;2023-07-29T08:21:54;18.40;99.90
50586;DHT22;36542;51.700;8.846;2023-07-29T08:24:19;18.20;99.90
50586;DHT22;36542;51.700;8.846;2023-07-29T08:26:45;18.10;99.90
50586;DHT22;36542;51.700;8.846;2023-07-29T08:29:11;18.10;99.90
50586;DHT22;36542;51.700;8.846;2023-07-29T08:31:37;18.00;99.90
50586;DHT22;36542;51.700;8.846;2023-07-29T08:34:03;17.90;99.90
50586;DHT22;36542;51.700;8.846;2023-07-29T08:36:28;17.90;99.90
50586;DHT22;36542;51.700;8.846;2023-07-29T08:38:54;18.00;99.90
50586;DHT22;36542;51.700;8.846;2023-07-29T08:41:31;18.10;99.90
50586;DHT22;36542;51.700;8.846;2023-07-29T08:44:12;18.10;99.90
50586;DHT22;36542;51.700;8.846;2023-07-29T08:46:43;18.20;99.90
50586;DHT22;36542;51.700;8.846;2023-07-29T08:49:11;18.30;99.90
50586;DHT22;36542;51.700;8.846;2023-07-29T08:51:41;18.50;99.90
50586;DHT22;36542;51.700;8.846;2023-07-29T08:54:07;18.80;99.90
50586;DHT22;36542;51.700;8.846;2023-07-29T08:56:33;18.90;99.90
50586;DHT22;36542;51.700;8.846;2023-07-29T08:58:59;19.10;99.90
50586;DHT22;36542;51.700;8.846;2023-07-29T09:01:27;19.40;99.90
50586;DHT22;36542;51.700;8.846;2023-07-29T09:03:53;19.40;99.90
50586;DHT22;36542;51.700;8.846;2023-07-29T09:06:19;19.50;99.90
50586;DHT22;36542;51.700;8.846;2023-07-29T09:08:46;19.40;99.90
50586;DHT22;36542;51.700;8.846;2023-07-29T09:11:14;19.70;99.90
50586;DHT22;36542;51.700;8.846;2023-07-29T09:13:42;20.00;99.90
50586;DHT22;36542;51.700;8.846;2023-07-29T09:16:09;20.10;99.90
50586;DHT22;36542;51.700;8.846;2023-07-29T09:18:34;20.20;99.90
50586;DHT22;36542;51.700;8.846;2023-07-29T09:21:00;20.10;99.90
50586;DHT22;36542;51.700;8.846;2023-07-29T09:23:33;20.20;99.90
50586;DHT22;36542;51.700;8.846;2023-07-29T09:26:03;20.20;99.90
50586;DHT22;36542;51.700;8.846;2023-07-29T09:28:34;20.00;99.90
50586;DHT22;36542;51.700;8.846;2023-07-29T09:31:00;19.90;99.90
50586;DHT22;36542;51.700;8.846;2023-07-29T09:33:26;19.80;99.90
50586;DHT22;36542;51.700;8.846;2023-07-29T09:35:51;20.00;99.90
50586;DHT22;36542;51.700;8.846;2023-07-29T09:38:17;20.20;99.90
50586;DHT22;36542;51.700;8.846;2023-07-29T09:40:42;20.20;99.90
50586;DHT22;36542;51.700;8.846;2023-07-29T09:43:10;20.00;99.90
50586;DHT22;36542;51.700;8.846;2023-07-29T09:45:37;20.20;99.90
50586;DHT22;36542;51.700;8.846;2023-07-29T09:48:04;21.20;99.90
50586;DHT22;36542;51.700;8.846;2023-07-29T09:50:35;21.90;99.90
50586;DHT22;36542;51.700;8.846;2023-07-29T09:53:02;23.00;99.90
50586;DHT22;36542;51.700;8.846;2023-07-29T09:55:28;23.80;99.90
50586;DHT22;36542;51.700;8.846;2023-07-29T09:57:59;24.20;99.90
50586;DHT22;36542;51.700;8.846;2023-07-29T10:00:30;24.10;99.90
50586;DHT22;36542;51.700;8.846;2023-07-29T10:02:57;24.30;99.90
50586;DHT22;36542;51.700;8.846;2023-07-29T10:05:26;24.70;99.90
50586;DHT22;36542;51.700;8.846;2023-07-29T10:07:52;25.00;99.90
50586;DHT22;36542;51.700;8.846;2023-07-29T10:10:20;25.00;99.90
50586;DHT22;36542;51.700;8.846;2023-07-29T10:12:46;24.90;99.90
50586;DHT22;36542;51.700;8.846;2023-07-29T10:15:12;24.90;99.90
50586;DHT22;36542;51.700;8.846;2023-07-29T10:17:38;25.20;99.90
50586;DHT22;36542;51.700;8.846;2023-07-29T10:20:05;25.50;99.90
50586;DHT22;36542;51.700;8.846;2023-07-29T10:22:40;25.40;99.90
50586;DHT22;36542;51.700;8.846;2023-07-29T10:25:18;25.20;99.90
50586;DHT22;36542;51.700;8.846;2023-07-29T10:30:12;24.50;99.90
50586;DHT22;36542;51.700;8.846;2023-07-29T10:32:40;24.80;99.90
50586;DHT22;36542;51.700;8.846;2023-07-29T10:35:07;24.80;99.90
50586;DHT22;36542;51.700;8.846;2023-07-29T10:37:33;25.20;99.90
50586;DHT22;36542;51.700;8.846;2023-07-29T10:39:58;25.40;99.90
50586;DHT22;36542;51.700;8.846;2023-07-29T10:42:24;25.50;99.90
50586;DHT22;36542;51.700;8.846;2023-07-29T10:44:51;24.90;99.90
50586;DHT22;36542;51.700;8.846;2023-07-29T10:47:27;24.10;99.90
50586;DHT22;36542;51.700;8.846;2023-07-29T10:49:58;23.40;99.90
50586;DHT22;36542;51.700;8.846;2023-07-29T10:52:42;23.50;99.90
50586;DHT22;36542;51.700;8.846;2023-07-29T10:55:32;23.60;99.90
50586;DHT22;36542;51.700;8.846;2023-07-29T10:58:11;24.00;99.90
50586;DHT22;36542;51.700;8.846;2023-07-29T11:00:38;24.40;99.90
50586;DHT22;36542;51.700;8.846;2023-07-29T11:03:07;24.70;99.90
50586;DHT22;36542;51.700;8.846;2023-07-29T11:05:45;25.30;99.90
50586;DHT22;36542;51.700;8.846;2023-07-29T11:08:30;25.00;99.90
50586;DHT22;36542;51.700;8.846;2023-07-29T11:11:07;25.10;99.90
50586;DHT22;36542;51.700;8.846;2023-07-29T11:13:35;24.60;99.90
50586;DHT22;36542;51.700;8.846;2023-07-29T11:16:01;24.60;99.90
50586;DHT22;36542;51.700;8.846;2023-07-29T11:18:35;24.50;99.90
50586;DHT22;36542;51.700;8.846;2023-07-29T11:21:02;24.60;99.90
50586;DHT22;36542;51.700;8.846;2023-07-29T11:23:32;24.60;99.90
50586;DHT22;36542;51.700;8.846;2023-07-29T11:25:59;25.10;99.90
50586;DHT22;36542;51.700;8.846;2023-07-29T11:28:25;25.00;99.90
50586;DHT22;36542;51.700;8.846;2023-07-29T11:30:51;24.50;99.90
50586;DHT22;36542;51.700;8.846;2023-07-29T11:33:22;24.20;99.90
50586;DHT22;36542;51.700;8.846;2023-07-29T11:35:49;23.80;99.90
50586;DHT22;36542;51.700;8.846;2023-07-29T11:38:16;23.60;99.90
50586;DHT22;36542;51.700;8.846;2023-07-29T11:40:42;23.50;99.90
50586;DHT22;36542;51.700;8.846;2023-07-29T11:43:07;23.40;99.90
50586;DHT22;36542;51.700;8.846;2023-07-29T11:45:33;23.00;99.90
50586;DHT22;36542;51.700;8.846;2023-07-29T11:48:00;23.20;99.90
50586;DHT22;36542;51.700;8.846;2023-07-29T11:50:26;23.50;99.90
50586;DHT22;36542;51.700;8.846;2023-07-29T11:52:52;23.90;99.90
50586;DHT22;36542;51.700;8.846;2023-07-29T11:55:18;23.90;99.90
50586;DHT22;36542;51.700;8.846;2023-07-29T11:57:47;23.80;99.90
50586;DHT22;36542;51.700;8.846;2023-07-29T12:00:16;23.90;99.90
50586;DHT22;36542;51.700;8.846;2023-07-29T12:02:44;24.10;99.90
50586;DHT22;36542;51.700;8.846;2023-07-29T12:05:12;24.60;99.90
50586;DHT22;36542;51.700;8.846;2023-07-29T12:07:42;24.30;99.90
50586;DHT22;36542;51.700;8.846;2023-07-29T12:10:08;24.60;99.90
50586;DHT22;36542;51.700;8.846;2023-07-29T12:12:44;24.70;99.90
50586;DHT22;36542;51.700;8.846;2023-07-29T12:15:10;24.20;99.90
50586;DHT22;36542;51.700;8.846;2023-07-29T12:17:42;23.90;99.90
50586;DHT22;36542;51.700;8.846;2023-07-29T12:20:11;24.20;99.90
50586;DHT22;36542;51.700;8.846;2023-07-29T12:22:36;24.30;99.90
50586;DHT22;36542;51.700;8.846;2023-07-29T12:25:03;24.30;99.90
50586;DHT22;36542;51.700;8.846;2023-07-29T12:27:30;24.70;99.90
50586;DHT22;36542;51.700;8.846;2023-07-29T12:29:55;24.70;99.90
50586;DHT22;36542;51.700;8.846;2023-07-29T12:32:25;24.30;99.90
50586;DHT22;36542;51.700;8.846;2023-07-29T12:34:53;24.00;99.90
50586;DHT22;36542;51.700;8.846;2023-07-29T12:37:19;24.20;99.90
50586;DHT22;36542;51.700;8.846;2023-07-29T12:39:44;24.10;99.90
50586;DHT22;36542;51.700;8.846;2023-07-29T12:42:10;24.30;99.90
50586;DHT22;36542;51.700;8.846;2023-07-29T12:44:36;24.20;99.90
50586;DHT22;36542;51.700;8.846;2023-07-29T12:47:04;24.30;99.90
50586;DHT22;36542;51.700;8.846;2023-07-29T12:49:30;23.90;99.90
50586;DHT22;36542;51.700;8.846;2023-07-29T12:51:57;23.70;99.90
50586;DHT22;36542;51.700;8.846;2023-07-29T12:54:23;23.40;99.90
50586;DHT22;36542;51.700;8.846;2023-07-29T12:56:48;23.50;99.90
50586;DHT22;36542;51.700;8.846;2023-07-29T12:59:14;24.00;99.90
50586;DHT22;36542;51.700;8.846;2023-07-29T13:01:40;24.60;99.90
50586;DHT22;36542;51.700;8.846;2023-07-29T13:04:05;24.80;99.90
50586;DHT22;36542;51.700;8.846;2023-07-29T13:06:31;24.90;99.90
50586;DHT22;36542;51.700;8.846;2023-07-29T13:08:56;25.10;99.90
50586;DHT22;36542;51.700;8.846;2023-07-29T13:11:22;25.00;99.90
50586;DHT22;36542;51.700;8.846;2023-07-29T13:13:47;24.70;99.90
50586;DHT22;36542;51.700;8.846;2023-07-29T13:16:13;24.50;99.90
50586;DHT22;36542;51.700;8.846;2023-07-29T13:18:39;24.50;99.90
50586;DHT22;36542;51.700;8.846;2023-07-29T13:21:05;24.50;99.90
50586;DHT22;36542;51.700;8.846;2023-07-29T13:23:30;24.40;99.90
50586;DHT22;36542;51.700;8.846;2023-07-29T13:25:57;24.10;99.90
50586;DHT22;36542;51.700;8.846;2023-07-29T13:28:22;23.80;99.90
50586;DHT22;36542;51.700;8.846;2023-07-29T13:30:48;23.50;99.90
50586;DHT22;36542;51.700;8.846;2023-07-29T13:33:14;23.30;99.90
50586;DHT22;36542;51.700;8.846;2023-07-29T13:35:39;23.30;99.90
50586;DHT22;36542;51.700;8.846;2023-07-29T13:38:05;23.50;99.90
50586;DHT22;36542;51.700;8.846;2023-07-29T13:40:31;23.60;99.90
50586;DHT22;36542;51.700;8.846;2023-07-29T13:42:56;23.90;99.90
50586;DHT22;36542;51.700;8.846;2023-07-29T13:45:22;24.10;99.90
50586;DHT22;36542;51.700;8.846;2023-07-29T13:47:49;24.10;99.90
50586;DHT22;36542;51.700;8.846;2023-07-29T13:50:15;24.00;99.90
50586;DHT22;36542;51.700;8.846;2023-07-29T13:52:41;24.30;99.90
50586;DHT22;36542;51.700;8.846;2023-07-29T13:55:07;24.40;99.90
50586;DHT22;36542;51.700;8.846;2023-07-29T13:57:32;24.00;99.90
50586;DHT22;36542;51.700;8.846;2023-07-29T13:59:58;23.90;99.90
50586;DHT22;36542;51.700;8.846;2023-07-29T14:02:24;23.80;99.90
50586;DHT22;36542;51.700;8.846;2023-07-29T14:04:51;23.90;99.90
50586;DHT22;36542;51.700;8.846;2023-07-29T14:07:17;24.40;99.90
50586;DHT22;36542;51.700;8.846;2023-07-29T14:09:42;24.90;99.90
50586;DHT22;36542;51.700;8.846;2023-07-29T14:12:08;25.40;99.90
50586;DHT22;36542;51.700;8.846;2023-07-29T14:14:38;25.60;99.90
50586;DHT22;36542;51.700;8.846;2023-07-29T14:17:03;25.60;99.90
50586;DHT22;36542;51.700;8.846;2023-07-29T14:19:29;25.40;99.90
50586;DHT22;36542;51.700;8.846;2023-07-29T14:21:55;25.20;99.90
50586;DHT22;36542;51.700;8.846;2023-07-29T14:24:20;24.90;99.90
50586;DHT22;36542;51.700;8.846;2023-07-29T14:26:46;24.70;99.90
50586;DHT22;36542;51.700;8.846;2023-07-29T14:29:12;24.70;99.90
50586;DHT22;36542;51.700;8.846;2023-07-29T14:31:37;25.00;99.90
50586;DHT22;36542;51.700;8.846;2023-07-29T14:34:03;25.10;99.90
50586;DHT22;36542;51.700;8.846;2023-07-29T14:36:28;25.10;99.90
50586;DHT22;36542;51.700;8.846;2023-07-29T14:38:54;25.50;99.90
50586;DHT22;36542;51.700;8.846;2023-07-29T14:41:19;25.60;99.90
50586;DHT22;36542;51.700;8.846;2023-07-29T14:43:45;25.50;99.90
50586;DHT22;36542;51.700;8.846;2023-07-29T14:46:11;25.30;99.90
50586;DHT22;36542;51.700;8.846;2023-07-29T14:48:36;25.10;99.90
50586;DHT22;36542;51.700;8.846;2023-07-29T14:51:02;24.80;99.90
50586;DHT22;36542;51.700;8.846;2023-07-29T14:53:27;24.80;99.90
50586;DHT22;36542;51.700;8.846;2023-07-29T14:55:53;24.60;99.90
50586;DHT22;36542;51.700;8.846;2023-07-29T14:58:19;24.30;99.90
50586;DHT22;36542;51.700;8.846;2023-07-29T15:00:45;24.30;99.90
50586;DHT22;36542;51.700;8.846;2023-07-29T15:03:10;24.00;99.90
50586;DHT22;36542;51.700;8.846;2023-07-29T15:05:36;23.80;99.90
50586;DHT22;36542;51.700;8.846;2023-07-29T15:08:01;23.50;99.90
50586;DHT22;36542;51.700;8.846;2023-07-29T15:10:27;23.30;99.90
50586;DHT22;36542;51.700;8.846;2023-07-29T15:12:52;23.00;99.90
50586;DHT22;36542;51.700;8.846;2023-07-29T15:15:18;22.80;99.90
50586;DHT22;36542;51.700;8.846;2023-07-29T15:17:43;22.70;99.90
50586;DHT22;36542;51.700;8.846;2023-07-29T15:20:10;22.50;99.90
50586;DHT22;36542;51.700;8.846;2023-07-29T15:22:37;22.30;99.90
50586;DHT22;36542;51.700;8.846;2023-07-29T15:25:03;22.20;99.90
50586;DHT22;36542;51.700;8.846;2023-07-29T15:27:29;22.10;99.90
50586;DHT22;36542;51.700;8.846;2023-07-29T15:29:55;22.20;99.90
50586;DHT22;36542;51.700;8.846;2023-07-29T15:32:21;22.40;99.90
50586;DHT22;36542;51.700;8.846;2023-07-29T15:34:48;22.50;99.90